sensor_id;sensor_type;location;lat;lon;timestamp;pressure;altitude;pressure_sealevel;temperature;humidity
76378;BME280;65200;49.500;8.654;2023-04-01T00:01:33;99015.63;;;9.66;78.92
76378;BME280;65200;49.500;8.654;2023-04-01T00:04:00;99007.59;;;9.66;77.71
76378;BME280;65200;49.500;8.654;2023-04-01T00:06:27;99005.75;;;9.66;77.17
76378;BME280;65200;49.500;8.654;2023-04-01T00:08:53;99008.03;;;9.63;79.08
76378;BME280;65200;49.500;8.654;2023-04-01T00:11:20;99008.25;;;9.61;78.93
76378;BME280;65200;49.500;8.654;2023-04-01T00:13:47;99009.53;;;9.59;79.07
76378;BME280;65200;49.500;8.654;2023-04-01T00:16:15;98999.63;;;9.59;79.29
76378;BME280;65200;49.500;8.654;2023-04-01T00:18:41;99000.88;;;9.57;77.36
76378;BME280;65200;49.500;8.654;2023-04-01T00:21:08;98995.31;;;9.58;77.94
76378;BME280;65200;49.500;8.654;2023-04-01T00:23:34;99001.50;;;9.59;77.48
76378;BME280;65200;49.500;8.654;2023-04-01T00:26:02;98997.59;;;9.55;78.19
76378;BME280;65200;49.500;8.654;2023-04-01T00:28:29;98992.25;;;9.55;78.58
76378;BME280;65200;49.500;8.654;2023-04-01T00:30:56;98995.38;;;9.52;77.81
76378;BME280;65200;49.500;8.654;2023-04-01T00:33:24;98992.47;;;9.53;77.59
76378;BME280;65200;49.500;8.654;2023-04-01T00:35:50;99008.28;;;9.55;76.62
76378;BME280;65200;49.500;8.654;2023-04-01T00:38:17;98994.94;;;9.55;77.53
76378;BME280;65200;49.500;8.654;2023-04-01T00:40:45;98995.81;;;9.49;76.71
76378;BME280;65200;49.500;8.654;2023-04-01T00:43:13;99002.34;;;9.53;76.96
76378;BME280;65200;49.500;8.654;2023-04-01T00:45:42;99008.13;;;9.50;78.95
76378;BME280;65200;49.500;8.654;2023-04-01T00:48:11;99004.88;;;9.48;78.81
76378;BME280;65200;49.500;8.654;2023-04-01T00:50:45;98997.88;;;9.47;77.38
76378;BME280;65200;49.500;8.654;2023-04-01T00:53:12;98999.31;;;9.49;77.55
76378;BME280;65200;49.500;8.654;2023-04-01T00:55:42;99000.31;;;9.48;78.52
76378;BME280;65200;49.500;8.654;2023-04-01T00:58:14;98994.19;;;9.48;77.19
76378;BME280;65200;49.500;8.654;2023-04-01T01:00:42;98994.75;;;9.50;77.86
76378;BME280;65200;49.500;8.654;2023-04-01T01:03:09;98992.53;;;9.47;77.00
76378;BME280;65200;49.500;8.654;2023-04-01T01:05:50;98994.56;;;9.45;77.17
76378;BME280;65200;49.500;8.654;2023-04-01T01:08:28;98996.69;;;9.43;78.43
76378;BME280;65200;49.500;8.654;2023-04-01T01:11:03;98994.34;;;9.46;76.55
76378;BME280;65200;49.500;8.654;2023-04-01T01:13:34;98990.28;;;9.44;78.36
76378;BME280;65200;49.500;8.654;2023-04-01T01:16:06;98988.81;;;9.48;77.45
76378;BME280;65200;49.500;8.654;2023-04-01T01:18:40;98994.97;;;9.48;76.56
76378;BME280;65200;49.500;8.654;2023-04-01T01:21:30;98991.84;;;9.51;76.97
76378;BME280;65200;49.500;8.654;2023-04-01T01:24:30;98992.06;;;9.50;76.41
76378;BME280;65200;49.500;8.654;2023-04-01T01:27:03;98984.88;;;9.50;76.92
76378;BME280;65200;49.500;8.654;2023-04-01T01:29:45;98983.84;;;9.51;75.90
76378;BME280;65200;49.500;8.654;2023-04-01T01:32:29;98989.34;;;9.56;77.00
76378;BME280;65200;49.500;8.654;2023-04-01T01:35:13;98980.09;;;9.59;76.37
76378;BME280;65200;49.500;8.654;2023-04-01T01:37:44;98976.75;;;9.63;75.54
76378;BME280;65200;49.500;8.654;2023-04-01T01:40:12;98966.91;;;9.64;76.11
76378;BME280;65200;49.500;8.654;2023-04-01T01:42:42;98975.94;;;9.63;76.12
76378;BME280;65200;49.500;8.654;2023-04-01T01:45:14;98968.28;;;9.66;75.19
76378;BME280;65200;49.500;8.654;2023-04-01T01:47:43;98966.66;;;9.65;75.32
76378;BME280;65200;49.500;8.654;2023-04-01T01:50:13;98968.06;;;9.68;75.72
76378;BME280;65200;49.500;8.654;2023-04-01T01:52:41;98960.50;;;9.65;76.19
76378;BME280;65200;49.500;8.654;2023-04-01T01:55:24;98959.03;;;9.69;75.06
76378;BME280;65200;49.500;8.654;2023-04-01T01:57:52;98965.19;;;9.69;73.96
76378;BME280;65200;49.500;8.654;2023-04-01T02:00:20;98955.75;;;9.67;74.30
76378;BME280;65200;49.500;8.654;2023-04-01T02:02:47;98947.94;;;9.65;75.81
76378;BME280;65200;49.500;8.654;2023-04-01T02:05:17;98967.47;;;9.66;75.41
76378;BME280;65200;49.500;8.654;2023-04-01T02:07:48;98951.41;;;9.66;74.32
76378;BME280;65200;49.500;8.654;2023-04-01T02:10:20;98950.41;;;9.67;75.19
76378;BME280;65200;49.500;8.654;2023-04-01T02:12:48;98958.22;;;9.68;75.54
76378;BME280;65200;49.500;8.654;2023-04-01T02:15:18;98956.59;;;9.67;74.49
76378;BME280;65200;49.500;8.654;2023-04-01T02:17:47;98953.91;;;9.67;75.88
76378;BME280;65200;49.500;8.654;2023-04-01T02:20:18;98961.94;;;9.67;75.65
76378;BME280;65200;49.500;8.654;2023-04-01T02:22:48;98950.19;;;9.68;74.74
76378;BME280;65200;49.500;8.654;2023-04-01T02:25:18;98956.78;;;9.66;75.23
76378;BME280;65200;49.500;8.654;2023-04-01T02:27:45;98952.03;;;9.68;74.41
76378;BME280;65200;49.500;8.654;2023-04-01T02:30:14;98963.34;;;9.70;75.63
76378;BME280;65200;49.500;8.654;2023-04-01T02:32:41;98963.34;;;9.70;75.12
76378;BME280;65200;49.500;8.654;2023-04-01T02:35:10;98957.16;;;9.69;75.77
76378;BME280;65200;49.500;8.654;2023-04-01T02:37:39;98965.19;;;9.69;75.20
76378;BME280;65200;49.500;8.654;2023-04-01T02:40:11;98967.06;;;9.69;75.68
76378;BME280;65200;49.500;8.654;2023-04-01T02:42:37;98960.66;;;9.70;75.72
76378;BME280;65200;49.500;8.654;2023-04-01T02:45:05;98957.38;;;9.68;74.44
76378;BME280;65200;49.500;8.654;2023-04-01T02:47:32;98961.50;;;9.70;74.48
76378;BME280;65200;49.500;8.654;2023-04-01T02:49:58;98961.50;;;9.70;74.60
76378;BME280;65200;49.500;8.654;2023-04-01T02:52:25;98963.78;;;9.67;75.10
76378;BME280;65200;49.500;8.654;2023-04-01T02:54:53;98969.72;;;9.69;75.96
76378;BME280;65200;49.500;8.654;2023-04-01T02:57:19;98966.44;;;9.67;75.69
76378;BME280;65200;49.500;8.654;2023-04-01T02:59:46;98972.47;;;9.62;75.61
76378;BME280;65200;49.500;8.654;2023-04-01T03:02:13;98982.78;;;9.59;75.06
76378;BME280;65200;49.500;8.654;2023-04-01T03:04:39;98976.38;;;9.60;74.97
76378;BME280;65200;49.500;8.654;2023-04-01T03:07:06;98972.50;;;9.56;75.33
76378;BME280;65200;49.500;8.654;2023-04-01T03:09:33;98962.03;;;9.54;75.56
76378;BME280;65200;49.500;8.654;2023-04-01T03:12:01;98963.50;;;9.50;76.34
76378;BME280;65200;49.500;8.654;2023-04-01T03:14:27;98967.38;;;9.54;75.63
76378;BME280;65200;49.500;8.654;2023-04-01T03:16:54;98966.13;;;9.57;75.59
76378;BME280;65200;49.500;8.654;2023-04-01T03:19:20;98968.78;;;9.57;75.44
76378;BME280;65200;49.500;8.654;2023-04-01T03:21:47;98973.91;;;9.58;75.96
76378;BME280;65200;49.500;8.654;2023-04-01T03:24:13;98971.47;;;9.57;75.56
76378;BME280;65200;49.500;8.654;2023-04-01T03:26:39;98974.75;;;9.59;75.04
76378;BME280;65200;49.500;8.654;2023-04-01T03:29:07;98968.56;;;9.58;76.94
76378;BME280;65200;49.500;8.654;2023-04-01T03:31:34;98970.06;;;9.54;76.28
76378;BME280;65200;49.500;8.654;2023-04-01T03:34:00;98977.88;;;9.56;76.27
76378;BME280;65200;49.500;8.654;2023-04-01T03:36:26;98969.84;;;9.56;75.45
76378;BME280;65200;49.500;8.654;2023-04-01T03:38:53;98978.09;;;9.54;75.72
76378;BME280;65200;49.500;8.654;2023-04-01T03:41:19;98974.81;;;9.52;76.89
76378;BME280;65200;49.500;8.654;2023-04-01T03:43:46;98970.25;;;9.53;76.03
76378;BME280;65200;49.500;8.654;2023-04-01T03:46:17;98973.09;;;9.58;76.80
76378;BME280;65200;49.500;8.654;2023-04-01T03:48:44;98968.13;;;9.61;75.08
76378;BME280;65200;49.500;8.654;2023-04-01T03:51:10;98970.41;;;9.58;76.28
76378;BME280;65200;49.500;8.654;2023-04-01T03:53:37;98968.34;;;9.60;74.84
76378;BME280;65200;49.500;8.654;2023-04-01T03:56:04;98970.59;;;9.63;76.07
76378;BME280;65200;49.500;8.654;2023-04-01T03:58:31;98978.44;;;9.58;76.54
76378;BME280;65200;49.500;8.654;2023-04-01T04:00:57;98978.66;;;9.56;75.74
76378;BME280;65200;49.500;8.654;2023-04-01T04:03:25;98972.25;;;9.64;75.13
76378;BME280;65200;49.500;8.654;2023-04-01T04:05:51;98968.91;;;9.68;75.47
76378;BME280;65200;49.500;8.654;2023-04-01T04:08:18;98980.66;;;9.67;75.81
76378;BME280;65200;49.500;8.654;2023-04-01T04:10:46;98973.88;;;9.65;74.71
76378;BME280;65200;49.500;8.654;2023-04-01T04:13:13;98967.47;;;9.66;74.22
76378;BME280;65200;49.500;8.654;2023-04-01T04:15:40;98969.72;;;9.69;73.88
76378;BME280;65200;49.500;8.654;2023-04-01T04:18:06;98966.66;;;9.65;75.08
76378;BME280;65200;49.500;8.654;2023-04-01T04:20:34;98959.44;;;9.66;74.77
76378;BME280;65200;49.500;8.654;2023-04-01T04:23:00;98961.31;;;9.65;75.16
76378;BME280;65200;49.500;8.654;2023-04-01T04:25:27;98970.00;;;9.61;74.43
76378;BME280;65200;49.500;8.654;2023-04-01T04:27:53;98961.97;;;9.61;74.36
76378;BME280;65200;49.500;8.654;2023-04-01T04:30:20;98962.56;;;9.63;75.07
76378;BME280;65200;49.500;8.654;2023-04-01T04:32:46;98955.38;;;9.63;74.77
76378;BME280;65200;49.500;8.654;2023-04-01T04:35:13;98957.44;;;9.61;75.82
76378;BME280;65200;49.500;8.654;2023-04-01T04:37:41;98957.00;;;9.64;74.62
76378;BME280;65200;49.500;8.654;2023-04-01T04:40:08;98947.56;;;9.62;74.53
76378;BME280;65200;49.500;8.654;2023-04-01T04:42:34;98952.69;;;9.63;75.78
76378;BME280;65200;49.500;8.654;2023-04-01T04:45:00;98956.63;;;9.61;75.28
76378;BME280;65200;49.500;8.654;2023-04-01T04:47:27;98942.25;;;9.55;76.19
76378;BME280;65200;49.500;8.654;2023-04-01T04:49:53;98946.41;;;9.51;76.45
76378;BME280;65200;49.500;8.654;2023-04-01T04:52:20;98942.38;;;9.42;76.71
76378;BME280;65200;49.500;8.654;2023-04-01T04:54:47;98949.59;;;9.35;76.52
76378;BME280;65200;49.500;8.654;2023-04-01T04:57:14;98955.00;;;9.29;77.54
76378;BME280;65200;49.500;8.654;2023-04-01T04:59:40;98955.25;;;9.21;78.97
76378;BME280;65200;49.500;8.654;2023-04-01T05:02:07;98954.06;;;9.17;79.09
76378;BME280;65200;49.500;8.654;2023-04-01T05:04:34;98948.78;;;9.10;78.39
76378;BME280;65200;49.500;8.654;2023-04-01T05:07:01;98961.72;;;9.07;79.46
76378;BME280;65200;49.500;8.654;2023-04-01T05:09:27;98964.63;;;9.05;79.49
76378;BME280;65200;49.500;8.654;2023-04-01T05:11:55;98960.94;;;9.00;79.73
76378;BME280;65200;49.500;8.654;2023-04-01T05:14:21;98964.03;;;8.97;80.43
76378;BME280;65200;49.500;8.654;2023-04-01T05:16:48;98967.53;;;8.97;80.76
76378;BME280;65200;49.500;8.654;2023-04-01T05:19:15;98967.97;;;8.94;80.79
76378;BME280;65200;49.500;8.654;2023-04-01T05:21:42;98959.13;;;8.94;79.67
76378;BME280;65200;49.500;8.654;2023-04-01T05:24:08;98954.84;;;8.93;80.48
76378;BME280;65200;49.500;8.654;2023-04-01T05:26:35;98959.75;;;8.96;79.70
76378;BME280;65200;49.500;8.654;2023-04-01T05:29:04;98964.25;;;8.95;79.12
76378;BME280;65200;49.500;8.654;2023-04-01T05:31:30;98951.50;;;8.97;80.55
76378;BME280;65200;49.500;8.654;2023-04-01T05:33:57;98959.75;;;8.96;79.21
76378;BME280;65200;49.500;8.654;2023-04-01T05:36:23;98955.41;;;8.95;79.17
76378;BME280;65200;49.500;8.654;2023-04-01T05:38:49;98959.31;;;8.99;80.00
76378;BME280;65200;49.500;8.654;2023-04-01T05:41:16;98949.25;;;9.01;80.06
76378;BME280;65200;49.500;8.654;2023-04-01T05:43:42;98949.81;;;9.03;79.60
76378;BME280;65200;49.500;8.654;2023-04-01T05:46:10;98951.25;;;9.05;78.80
76378;BME280;65200;49.500;8.654;2023-04-01T05:48:37;98947.16;;;9.03;79.97
76378;BME280;65200;49.500;8.654;2023-04-01T05:51:03;98942.59;;;9.10;79.70
76378;BME280;65200;49.500;8.654;2023-04-01T05:53:30;98947.50;;;9.13;79.31
76378;BME280;65200;49.500;8.654;2023-04-01T05:55:57;98946.50;;;9.14;79.85
76378;BME280;65200;49.500;8.654;2023-04-01T05:58:23;98944.59;;;9.14;79.12
76378;BME280;65200;49.500;8.654;2023-04-01T06:00:50;98935.75;;;9.20;79.42
76378;BME280;65200;49.500;8.654;2023-04-01T06:03:17;98939.84;;;9.23;78.42
76378;BME280;65200;49.500;8.654;2023-04-01T06:05:44;98951.13;;;9.25;79.29
76378;BME280;65200;49.500;8.654;2023-04-01T06:08:13;98938.56;;;9.25;78.77
76378;BME280;65200;49.500;8.654;2023-04-01T06:10:50;98943.28;;;9.30;78.68
76378;BME280;65200;49.500;8.654;2023-04-01T06:13:27;98944.91;;;9.31;78.75
76378;BME280;65200;49.500;8.654;2023-04-01T06:16:04;98947.97;;;9.34;78.94
76378;BME280;65200;49.500;8.654;2023-04-01T06:18:59;98947.97;;;9.34;78.55
76378;BME280;65200;49.500;8.654;2023-04-01T06:24:33;98946.88;;;9.42;76.44
76378;BME280;65200;49.500;8.654;2023-04-01T06:27:12;98945.03;;;9.42;76.56
76378;BME280;65200;49.500;8.654;2023-04-01T06:29:58;98952.00;;;9.43;77.14
76378;BME280;65200;49.500;8.654;2023-04-01T06:32:51;98944.44;;;9.40;76.95
76378;BME280;65200;49.500;8.654;2023-04-01T06:35:31;98945.25;;;9.41;77.25
76378;BME280;65200;49.500;8.654;2023-04-01T06:38:10;98942.16;;;9.44;77.71
76378;BME280;65200;49.500;8.654;2023-04-01T06:41:01;98948.16;;;9.39;78.58
76378;BME280;65200;49.500;8.654;2023-04-01T06:43:40;98936.19;;;9.42;76.79
76378;BME280;65200;49.500;8.654;2023-04-01T06:46:16;98942.97;;;9.44;78.22
76378;BME280;65200;49.500;8.654;2023-04-01T06:48:49;98944.81;;;9.44;77.16
76378;BME280;65200;49.500;8.654;2023-04-01T06:51:30;98951.78;;;9.45;76.60
76378;BME280;65200;49.500;8.654;2023-04-01T06:54:04;98938.66;;;9.43;78.25
76378;BME280;65200;49.500;8.654;2023-04-01T06:56:32;98944.81;;;9.44;76.49
76378;BME280;65200;49.500;8.654;2023-04-01T06:59:02;98942.38;;;9.42;76.66
76378;BME280;65200;49.500;8.654;2023-04-01T07:01:35;98946.44;;;9.45;76.79
76378;BME280;65200;49.500;8.654;2023-04-01T07:04:06;98931.66;;;9.42;77.09
76378;BME280;65200;49.500;8.654;2023-04-01T07:06:43;98948.31;;;9.44;78.55
76378;BME280;65200;49.500;8.654;2023-04-01T07:09:13;98937.06;;;9.36;78.77
76378;BME280;65200;49.500;8.654;2023-04-01T07:11:42;98938.19;;;9.46;78.81
76378;BME280;65200;49.500;8.654;2023-04-01T07:14:14;98950.72;;;9.52;78.32
76378;BME280;65200;49.500;8.654;2023-04-01T07:16:47;98949.91;;;9.52;78.88
76378;BME280;65200;49.500;8.654;2023-04-01T07:19:19;98945.81;;;9.49;79.03
76378;BME280;65200;49.500;8.654;2023-04-01T07:21:51;98948.91;;;9.46;77.96
76378;BME280;65200;49.500;8.654;2023-04-01T07:24:21;98940.34;;;9.38;79.70
76378;BME280;65200;49.500;8.654;2023-04-01T07:26:53;98947.75;;;9.36;80.22
76378;BME280;65200;49.500;8.654;2023-04-01T07:29:20;98960.53;;;9.34;79.41
76378;BME280;65200;49.500;8.654;2023-04-01T07:32:09;98961.00;;;9.24;80.59
76378;BME280;65200;49.500;8.654;2023-04-01T07:34:47;98955.88;;;9.23;80.49
76378;BME280;65200;49.500;8.654;2023-04-01T07:37:22;98957.53;;;9.17;81.67
76378;BME280;65200;49.500;8.654;2023-04-01T07:39:55;98974.63;;;9.16;80.80
76378;BME280;65200;49.500;8.654;2023-04-01T07:42:33;98972.59;;;9.12;81.42
76378;BME280;65200;49.500;8.654;2023-04-01T07:45:13;98974.63;;;9.16;82.51
76378;BME280;65200;49.500;8.654;2023-04-01T07:47:57;98958.59;;;9.16;82.15
76378;BME280;65200;49.500;8.654;2023-04-01T07:50:27;98961.88;;;9.18;81.66
76378;BME280;65200;49.500;8.654;2023-04-01T07:53:04;98951.63;;;9.15;81.84
76378;BME280;65200;49.500;8.654;2023-04-01T07:55:38;98953.63;;;9.20;83.10
76378;BME280;65200;49.500;8.654;2023-04-01T07:58:13;98963.31;;;9.14;83.08
76378;BME280;65200;49.500;8.654;2023-04-01T08:00:45;98962.88;;;9.17;82.23
76378;BME280;65200;49.500;8.654;2023-04-01T08:03:43;98968.50;;;9.09;83.59
76378;BME280;65200;49.500;8.654;2023-04-01T08:06:18;98963.97;;;9.10;82.06
76378;BME280;65200;49.500;8.654;2023-04-01T08:08:56;98971.38;;;9.08;83.46
76378;BME280;65200;49.500;8.654;2023-04-01T08:11:35;98963.72;;;9.18;82.00
76378;BME280;65200;49.500;8.654;2023-04-01T08:14:08;98961.81;;;9.25;81.65
76378;BME280;65200;49.500;8.654;2023-04-01T08:16:45;98969.41;;;9.28;81.71
76378;BME280;65200;49.500;8.654;2023-04-01T08:19:21;98964.25;;;9.33;82.70
76378;BME280;65200;49.500;8.654;2023-04-01T08:21:56;98971.81;;;9.36;82.89
76378;BME280;65200;49.500;8.654;2023-04-01T08:24:29;98978.22;;;9.35;81.98
76378;BME280;65200;49.500;8.654;2023-04-01T08:27:03;98965.06;;;9.33;83.23
76378;BME280;65200;49.500;8.654;2023-04-01T08:29:37;98986.81;;;9.37;82.75
76378;BME280;65200;49.500;8.654;2023-04-01T08:32:07;98984.59;;;9.34;81.70
76378;BME280;65200;49.500;8.654;2023-04-01T08:34:37;98977.38;;;9.34;83.19
76378;BME280;65200;49.500;8.654;2023-04-01T08:37:06;98980.91;;;9.35;82.38
76378;BME280;65200;49.500;8.654;2023-04-01T08:39:37;98989.53;;;9.30;83.57
76378;BME280;65200;49.500;8.654;2023-04-01T08:42:24;98997.63;;;9.17;84.02
76378;BME280;65200;49.500;8.654;2023-04-01T08:45:10;98996.66;;;9.12;84.47
76378;BME280;65200;49.500;8.654;2023-04-01T08:47:46;98996.91;;;9.04;86.50
76378;BME280;65200;49.500;8.654;2023-04-01T08:50:42;98987.00;;;9.04;85.56
76378;BME280;65200;49.500;8.654;2023-04-01T08:53:19;98988.47;;;9.07;86.64
76378;BME280;65200;49.500;8.654;2023-04-01T08:56:03;98990.72;;;9.03;87.01
76378;BME280;65200;49.500;8.654;2023-04-01T08:58:46;98987.63;;;9.06;85.60
76378;BME280;65200;49.500;8.654;2023-04-01T09:01:14;98996.66;;;9.12;85.54
76378;BME280;65200;49.500;8.654;2023-04-01T09:03:58;98989.44;;;9.12;85.64
76378;BME280;65200;49.500;8.654;2023-04-01T09:06:50;98990.66;;;9.16;86.38
76378;BME280;65200;49.500;8.654;2023-04-01T09:09:43;98996.84;;;9.17;87.03
76378;BME280;65200;49.500;8.654;2023-04-01T09:12:39;98993.56;;;9.15;85.42
76378;BME280;65200;49.500;8.654;2023-04-01T09:15:27;98996.00;;;9.16;85.76
76378;BME280;65200;49.500;8.654;2023-04-01T09:18:17;98997.00;;;9.22;86.44
76378;BME280;65200;49.500;8.654;2023-04-01T09:23:53;98994.72;;;9.25;87.37
76378;BME280;65200;49.500;8.654;2023-04-01T09:26:37;98997.78;;;9.29;86.74
76378;BME280;65200;49.500;8.654;2023-04-01T09:29:20;99007.50;;;9.23;86.65
76378;BME280;65200;49.500;8.654;2023-04-01T09:32:08;99011.78;;;9.24;86.46
76378;BME280;65200;49.500;8.654;2023-04-01T09:34:53;99009.34;;;9.23;86.97
76378;BME280;65200;49.500;8.654;2023-04-01T09:37:21;99010.13;;;9.30;86.36
76378;BME280;65200;49.500;8.654;2023-04-01T09:40:11;99000.88;;;9.26;86.36
76378;BME280;65200;49.500;8.654;2023-04-01T09:42:49;99003.78;;;9.24;85.66
76378;BME280;65200;49.500;8.654;2023-04-01T09:45:34;99012.63;;;9.25;87.18
76378;BME280;65200;49.500;8.654;2023-04-01T09:48:15;99010.31;;;9.35;86.05
76378;BME280;65200;49.500;8.654;2023-04-01T09:50:52;99014.59;;;9.36;86.83
76378;BME280;65200;49.500;8.654;2023-04-01T09:53:36;99013.94;;;9.40;85.96
76378;BME280;65200;49.500;8.654;2023-04-01T09:56:23;99018.28;;;9.41;86.12
76378;BME280;65200;49.500;8.654;2023-04-01T09:59:19;99012.91;;;9.48;87.57
76378;BME280;65200;49.500;8.654;2023-04-01T10:02:33;99015.13;;;9.51;87.12
76378;BME280;65200;49.500;8.654;2023-04-01T10:08:33;99027.88;;;9.49;85.55
76378;BME280;65200;49.500;8.654;2023-04-01T10:11:36;99025.66;;;9.46;85.76
76378;BME280;65200;49.500;8.654;2023-04-01T10:14:36;99017.59;;;9.52;85.90
76378;BME280;65200;49.500;8.654;2023-04-01T10:17:37;99014.88;;;9.59;86.55
76378;BME280;65200;49.500;8.654;2023-04-01T10:20:27;99023.31;;;9.56;88.03
76378;BME280;65200;49.500;8.654;2023-04-01T10:23:19;99024.53;;;9.60;85.69
76378;BME280;65200;49.500;8.654;2023-04-01T10:26:02;99009.53;;;9.59;86.78
76378;BME280;65200;49.500;8.654;2023-04-01T10:28:43;99023.50;;;9.61;87.89
76378;BME280;65200;49.500;8.654;2023-04-01T10:31:50;99023.06;;;9.64;87.18
76378;BME280;65200;49.500;8.654;2023-04-01T10:34:44;99011.41;;;9.52;87.53
76378;BME280;65200;49.500;8.654;2023-04-01T10:37:33;99020.69;;;9.49;88.69
76378;BME280;65200;49.500;8.654;2023-04-01T10:40:31;99026.63;;;9.51;88.42
76378;BME280;65200;49.500;8.654;2023-04-01T10:46:44;99025.78;;;9.57;89.51
76378;BME280;65200;49.500;8.654;2023-04-01T10:49:44;99010.97;;;9.55;89.34
76378;BME280;65200;49.500;8.654;2023-04-01T10:52:54;99028.41;;;9.64;87.92
76378;BME280;65200;49.500;8.654;2023-04-01T10:55:35;99021.00;;;9.59;89.91
76378;BME280;65200;49.500;8.654;2023-04-01T10:58:27;99007.09;;;9.51;90.01
76378;BME280;65200;49.500;8.654;2023-04-01T11:01:22;99015.72;;;9.53;90.11
76378;BME280;65200;49.500;8.654;2023-04-01T11:07:15;99024.75;;;9.58;90.52
76378;BME280;65200;49.500;8.654;2023-04-01T11:10:40;99023.50;;;9.61;90.33
76378;BME280;65200;49.500;8.654;2023-04-01T11:13:30;99022.00;;;9.65;88.80
76378;BME280;65200;49.500;8.654;2023-04-01T11:19:14;99029.78;;;9.73;89.43
76378;BME280;65200;49.500;8.654;2023-04-01T11:21:56;99023.53;;;9.79;89.98
76378;BME280;65200;49.500;8.654;2023-04-01T11:25:02;99032.56;;;9.85;88.51
76378;BME280;65200;49.500;8.654;2023-04-01T11:27:57;99025.38;;;9.85;89.41
76378;BME280;65200;49.500;8.654;2023-04-01T11:30:41;99032.75;;;9.90;88.93
76378;BME280;65200;49.500;8.654;2023-04-01T11:33:15;99028.16;;;9.97;88.61
76378;BME280;65200;49.500;8.654;2023-04-01T11:35:55;99045.63;;;9.99;88.40
76378;BME280;65200;49.500;8.654;2023-04-01T11:38:34;99037.38;;;10.01;88.58
76378;BME280;65200;49.500;8.654;2023-04-01T11:41:17;99035.09;;;10.04;89.07
76378;BME280;65200;49.500;8.654;2023-04-01T11:43:57;99040.50;;;9.98;89.37
76378;BME280;65200;49.500;8.654;2023-04-01T11:46:33;99048.13;;;9.94;88.42
76378;BME280;65200;49.500;8.654;2023-04-01T11:49:12;99040.56;;;9.91;89.91
76378;BME280;65200;49.500;8.654;2023-04-01T11:51:51;99050.59;;;9.96;89.59
76378;BME280;65200;49.500;8.654;2023-04-01T11:54:34;99042.72;;;10.01;89.31
76378;BME280;65200;49.500;8.654;2023-04-01T11:57:31;99050.53;;;10.02;89.36
76378;BME280;65200;49.500;8.654;2023-04-01T12:00:14;99049.78;;;9.95;87.72
76378;BME280;65200;49.500;8.654;2023-04-01T12:02:59;99059.44;;;9.96;88.49
76378;BME280;65200;49.500;8.654;2023-04-01T12:05:38;99056.94;;;10.01;87.70
76378;BME280;65200;49.500;8.654;2023-04-01T12:08:23;99069.28;;;10.02;87.95
76378;BME280;65200;49.500;8.654;2023-04-01T12:10:57;99062.28;;;10.01;87.83
76378;BME280;65200;49.500;8.654;2023-04-01T12:13:35;99062.13;;;9.96;87.90
76378;BME280;65200;49.500;8.654;2023-04-01T12:16:13;99057.34;;;10.05;87.27
76378;BME280;65200;49.500;8.654;2023-04-01T12:18:50;99064.72;;;10.09;86.80
76378;BME280;65200;49.500;8.654;2023-04-01T12:21:25;99054.63;;;10.11;87.87
76378;BME280;65200;49.500;8.654;2023-04-01T12:26:46;99069.38;;;10.20;86.78
76378;BME280;65200;49.500;8.654;2023-04-01T12:29:37;99063.50;;;10.30;85.73
76378;BME280;65200;49.500;8.654;2023-04-01T12:32:09;99070.03;;;10.40;86.47
76378;BME280;65200;49.500;8.654;2023-04-01T12:35:05;99072.84;;;10.45;85.31
76378;BME280;65200;49.500;8.654;2023-04-01T12:37:42;99065.41;;;10.47;84.98
76378;BME280;65200;49.500;8.654;2023-04-01T12:40:23;99079.00;;;10.46;84.07
76378;BME280;65200;49.500;8.654;2023-04-01T12:43:02;99076.41;;;10.39;84.32
76378;BME280;65200;49.500;8.654;2023-04-01T12:45:38;99086.53;;;10.37;84.48
76378;BME280;65200;49.500;8.654;2023-04-01T12:48:12;99078.28;;;10.39;85.82
76378;BME280;65200;49.500;8.654;2023-04-01T12:51:18;99074.16;;;10.36;86.03
76378;BME280;65200;49.500;8.654;2023-04-01T12:56:56;99073.31;;;10.42;83.65
76378;BME280;65200;49.500;8.654;2023-04-01T12:59:49;99078.38;;;10.50;84.70
76378;BME280;65200;49.500;8.654;2023-04-01T13:02:30;99084.31;;;10.52;84.33
76378;BME280;65200;49.500;8.654;2023-04-01T13:05:21;99083.06;;;10.55;84.39
76378;BME280;65200;49.500;8.654;2023-04-01T13:07:53;99090.28;;;10.54;84.16
76378;BME280;65200;49.500;8.654;2023-04-01T13:13:45;99079.28;;;10.62;82.82
76378;BME280;65200;49.500;8.654;2023-04-01T13:16:19;99096.19;;;10.63;83.40
76378;BME280;65200;49.500;8.654;2023-04-01T13:18:56;99088.06;;;10.69;82.85
76378;BME280;65200;49.500;8.654;2023-04-01T13:21:33;99089.47;;;10.72;83.61
76378;BME280;65200;49.500;8.654;2023-04-01T13:24:09;99093.88;;;10.66;82.90
76378;BME280;65200;49.500;8.654;2023-04-01T13:26:43;99080.69;;;10.65;83.10
76378;BME280;65200;49.500;8.654;2023-04-01T13:29:18;99103.75;;;10.66;84.30
76378;BME280;65200;49.500;8.654;2023-04-01T13:31:58;99101.97;;;10.60;83.08
76378;BME280;65200;49.500;8.654;2023-04-01T13:34:39;99102.25;;;10.52;84.04
76378;BME280;65200;49.500;8.654;2023-04-01T13:37:26;99109.47;;;10.51;83.24
76378;BME280;65200;49.500;8.654;2023-04-01T13:40:19;99113.78;;;10.52;83.61
76378;BME280;65200;49.500;8.654;2023-04-01T13:42:54;99109.47;;;10.51;83.45
76378;BME280;65200;49.500;8.654;2023-04-01T13:45:24;99116.03;;;10.55;84.26
76378;BME280;65200;49.500;8.654;2023-04-01T13:51:28;99103.09;;;10.70;82.26
76378;BME280;65200;49.500;8.654;2023-04-01T13:54:09;99094.75;;;10.60;81.42
76378;BME280;65200;49.500;8.654;2023-04-01T13:56:44;99115.03;;;10.74;80.75
76378;BME280;65200;49.500;8.654;2023-04-01T13:59:40;99119.72;;;10.79;80.74
76378;BME280;65200;49.500;8.654;2023-04-01T14:05:26;99121.13;;;10.81;79.69
76378;BME280;65200;49.500;8.654;2023-04-01T14:08:07;99120.25;;;10.87;78.92
76378;BME280;65200;49.500;8.654;2023-04-01T14:10:40;99119.63;;;10.85;79.43
76378;BME280;65200;49.500;8.654;2023-04-01T14:13:12;99118.16;;;10.89;78.60
76378;BME280;65200;49.500;8.654;2023-04-01T14:18:42;99124.56;;;10.88;78.23
76378;BME280;65200;49.500;8.654;2023-04-01T14:21:23;99124.56;;;10.88;78.78
76378;BME280;65200;49.500;8.654;2023-04-01T14:24:20;99121.28;;;10.86;78.41
76378;BME280;65200;49.500;8.654;2023-04-01T14:27:11;99126.63;;;10.86;78.46
76378;BME280;65200;49.500;8.654;2023-04-01T14:29:52;99128.91;;;10.89;78.17
76378;BME280;65200;49.500;8.654;2023-04-01T14:32:30;99122.69;;;10.89;78.06